Time;durP1;ratioP1;P1;durP2;ratioP2;P2;SDS_P1;SDS_P2;PMS_P1;PMS_P2;Temp;Humidity;BMP_temperature;BMP_pressure;BME280_temperature;BME280_humidity;BME280_pressure;Samples;Min_cycle;Max_cycle;Signal;HPM_P1;HPM_P2
2022/10/04 00:02:13;;;;;;;10.13;2.28;;;12.20;99.90;;;;;;4991976;28;20482;-73
2022/10/04 00:04:50;;;;;;;5.40;2.00;;;12.20;99.90;;;;;;4985139;28;20034;-74
2022/10/04 00:07:22;;;;;;;9.30;2.38;;;12.20;99.90;;;;;;5006597;28;20064;-77
2022/10/04 00:09:56;;;;;;;7.15;2.33;;;12.20;99.90;;;;;;5003443;28;20030;-75
2022/10/04 00:12:33;;;;;;;11.25;2.70;;;12.20;99.90;;;;;;5009384;28;20508;-80
2022/10/04 00:15:17;;;;;;;5.50;1.92;;;12.10;99.90;;;;;;5001551;28;20412;-77
2022/10/04 00:17:43;;;;;;;9.27;2.55;;;12.10;99.90;;;;;;5002701;28;20029;-74
2022/10/04 00:20:47;;;;;;;10.80;2.08;;;12.20;99.90;;;;;;5009107;28;20410;-72
2022/10/04 00:23:35;;;;;;;6.35;2.10;;;12.10;99.90;;;;;;5001306;28;20106;-78
2022/10/04 00:26:04;;;;;;;7.68;1.92;;;12.10;99.90;;;;;;4987220;28;20046;-74
2022/10/04 00:28:45;;;;;;;6.15;2.30;;;12.10;99.90;;;;;;5003633;28;20053;-74
2022/10/04 00:31:27;;;;;;;7.18;2.42;;;12.00;99.90;;;;;;4987287;28;20026;-77
2022/10/04 00:34:15;;;;;;;9.90;2.15;;;12.00;99.90;;;;;;5006010;28;20030;-75
2022/10/04 00:36:55;;;;;;;6.20;2.38;;;12.00;99.90;;;;;;5004180;28;20042;-76
2022/10/04 00:39:34;;;;;;;5.25;2.50;;;12.00;99.90;;;;;;5006153;28;20528;-75
2022/10/04 00:42:13;;;;;;;8.88;2.40;;;12.00;99.90;;;;;;5011376;28;20101;-74
2022/10/04 00:45:38;;;;;;;6.20;2.10;;;11.90;99.90;;;;;;4990444;28;20029;-75
2022/10/04 00:48:29;;;;;;;10.35;2.22;;;11.90;99.90;;;;;;4994120;28;20394;-76
2022/10/04 00:51:13;;;;;;;8.15;2.10;;;11.90;99.90;;;;;;5001071;28;20037;-72
2022/10/04 00:53:48;;;;;;;9.10;2.45;;;11.90;99.90;;;;;;4989524;28;20038;-77
2022/10/04 00:56:33;;;;;;;6.78;2.28;;;11.90;99.90;;;;;;5004600;28;20022;-76
2022/10/04 00:59:16;;;;;;;7.80;1.95;;;11.90;99.90;;;;;;5006490;28;20025;-73
2022/10/04 01:01:48;;;;;;;8.80;2.20;;;11.90;99.90;;;;;;4986305;28;20018;-73
2022/10/04 01:04:32;;;;;;;10.68;2.72;;;11.90;99.90;;;;;;4985767;28;20061;-79
2022/10/04 01:07:02;;;;;;;7.57;2.63;;;11.90;99.90;;;;;;5005073;28;20048;-76
2022/10/04 01:09:31;;;;;;;9.15;2.83;;;11.90;99.90;;;;;;5008575;28;20034;-73
2022/10/04 01:12:04;;;;;;;7.25;2.20;;;11.90;99.90;;;;;;5005315;28;20121;-74
2022/10/04 01:14:39;;;;;;;8.60;2.40;;;11.90;99.90;;;;;;5003623;28;20528;-74
2022/10/04 01:17:06;;;;;;;13.48;2.95;;;11.90;99.90;;;;;;5007287;28;20080;-73
2022/10/04 01:19:33;;;;;;;11.05;2.45;;;11.90;99.90;;;;;;5006032;28;20037;-75
2022/10/04 01:22:17;;;;;;;12.23;2.83;;;11.90;99.90;;;;;;4986951;28;20033;-79
2022/10/04 01:24:43;;;;;;;13.15;3.70;;;11.90;99.90;;;;;;5008621;28;20034;-76
2022/10/04 01:27:33;;;;;;;11.63;4.03;;;11.90;99.90;;;;;;5005772;28;20394;-74
2022/10/04 01:30:00;;;;;;;6.75;3.22;;;11.80;99.90;;;;;;5002491;28;20401;-80
2022/10/04 01:32:34;;;;;;;13.82;3.60;;;11.80;99.90;;;;;;5003407;28;20485;-74
2022/10/04 01:34:59;;;;;;;12.05;3.75;;;11.80;99.90;;;;;;4996692;28;20042;-77
2022/10/04 01:37:28;;;;;;;8.02;3.10;;;11.80;99.90;;;;;;4990861;28;20556;-74
2022/10/04 01:39:57;;;;;;;14.35;3.28;;;11.80;99.90;;;;;;5004742;28;20034;-76
2022/10/04 01:42:35;;;;;;;9.45;3.17;;;11.70;99.90;;;;;;4984414;28;20524;-74
2022/10/04 01:45:10;;;;;;;6.85;2.85;;;11.70;99.90;;;;;;5007999;28;20034;-79
2022/10/04 01:47:41;;;;;;;10.75;3.35;;;11.70;99.90;;;;;;5002070;28;20022;-74
2022/10/04 01:50:19;;;;;;;7.65;2.90;;;11.70;99.90;;;;;;5006681;28;20048;-77
2022/10/04 01:52:54;;;;;;;16.48;3.20;;;11.70;99.90;;;;;;5002606;28;20026;-78
2022/10/04 01:55:27;;;;;;;16.75;3.47;;;11.70;99.90;;;;;;5003282;28;20060;-79
2022/10/04 01:58:01;;;;;;;10.18;2.58;;;11.70;99.90;;;;;;4998336;28;21877;-77
2022/10/04 02:00:27;;;;;;;10.27;3.03;;;11.70;99.90;;;;;;5005029;28;20026;-80
2022/10/04 02:03:03;;;;;;;7.93;2.63;;;11.70;99.90;;;;;;4988311;28;20056;-76
2022/10/04 02:05:36;;;;;;;10.20;2.72;;;11.70;99.90;;;;;;4987798;28;21748;-77
2022/10/04 02:08:15;;;;;;;6.22;2.97;;;11.70;99.90;;;;;;4991353;28;20589;-73
2022/10/04 02:10:44;;;;;;;7.95;2.80;;;11.70;99.90;;;;;;4986517;28;20060;-78
2022/10/04 02:13:14;;;;;;;9.40;2.80;;;11.70;99.90;;;;;;4991276;28;20034;-75
2022/10/04 02:15:44;;;;;;;11.98;2.63;;;11.70;99.90;;;;;;5007696;28;20018;-74
2022/10/04 02:18:13;;;;;;;5.35;2.05;;;11.70;99.90;;;;;;4982707;28;20030;-74
2022/10/04 02:20:42;;;;;;;10.65;2.50;;;11.70;99.90;;;;;;5008171;28;20453;-75
2022/10/04 02:23:09;;;;;;;9.90;2.50;;;11.70;99.90;;;;;;4990592;28;20436;-74
2022/10/04 02:25:36;;;;;;;4.80;2.05;;;11.70;99.90;;;;;;5008883;28;20041;-73
2022/10/04 02:28:03;;;;;;;8.07;2.33;;;11.70;99.90;;;;;;5007763;28;20030;-74
2022/10/04 02:30:35;;;;;;;9.98;2.30;;;11.70;99.90;;;;;;5011971;28;20094;-77
2022/10/04 02:33:01;;;;;;;6.25;2.42;;;11.70;99.90;;;;;;4993878;28;20886;-76
2022/10/04 02:35:35;;;;;;;8.00;2.28;;;11.80;99.90;;;;;;5007524;28;20037;-74
2022/10/04 02:38:22;;;;;;;7.82;2.50;;;11.80;99.90;;;;;;5009475;28;20117;-75
2022/10/04 02:41:04;;;;;;;6.28;2.15;;;11.80;99.90;;;;;;5005966;28;20032;-76
2022/10/04 02:43:55;;;;;;;6.47;2.33;;;11.80;99.90;;;;;;5021060;28;20038;-77
2022/10/04 02:46:50;;;;;;;6.78;2.55;;;11.80;99.90;;;;;;5005902;28;20042;-74
2022/10/04 02:49:31;;;;;;;4.93;2.30;;;11.80;99.90;;;;;;5009283;28;20030;-75
2022/10/04 02:52:08;;;;;;;7.78;2.92;;;11.80;99.90;;;;;;5018015;28;20116;-75
2022/10/04 02:54:51;;;;;;;7.90;2.10;;;11.80;99.90;;;;;;5006672;28;20081;-76
2022/10/04 02:57:22;;;;;;;11.43;2.67;;;11.80;99.90;;;;;;5008861;28;20033;-73
2022/10/04 02:59:50;;;;;;;7.97;2.58;;;11.70;99.90;;;;;;5008031;28;20066;-73
2022/10/04 03:02:30;;;;;;;6.72;2.50;;;11.70;99.90;;;;;;5008869;28;20078;-75
2022/10/04 03:05:04;;;;;;;9.95;2.63;;;11.80;99.90;;;;;;5006414;28;20056;-75
2022/10/04 03:07:32;;;;;;;7.38;2.38;;;11.70;99.90;;;;;;5004349;28;20045;-75
2022/10/04 03:09:59;;;;;;;7.40;2.60;;;11.80;99.90;;;;;;5001666;28;20029;-75
2022/10/04 03:12:30;;;;;;;12.20;2.88;;;11.70;99.90;;;;;;4984646;28;20038;-73
2022/10/04 03:14:59;;;;;;;8.60;3.40;;;11.70;99.90;;;;;;4988776;28;20030;-73
2022/10/04 03:17:25;;;;;;;7.72;2.42;;;11.70;99.90;;;;;;5008603;28;20034;-73
2022/10/04 03:19:51;;;;;;;10.43;2.78;;;11.80;99.90;;;;;;4992173;28;20026;-75
2022/10/04 03:22:17;;;;;;;5.15;2.47;;;11.80;99.90;;;;;;4991927;28;20041;-75
2022/10/04 03:24:52;;;;;;;6.93;2.72;;;11.70;99.90;;;;;;5009569;28;20076;-74
2022/10/04 03:27:27;;;;;;;7.57;2.70;;;11.70;99.90;;;;;;5009022;28;20065;-74
2022/10/04 03:29:54;;;;;;;10.80;2.90;;;11.70;99.90;;;;;;4991881;28;20037;-76
2022/10/04 03:32:20;;;;;;;8.70;3.10;;;11.70;99.90;;;;;;5008836;28;20085;-73
2022/10/04 03:35:03;;;;;;;9.25;2.40;;;11.70;99.90;;;;;;5009956;28;20034;-73
2022/10/04 03:37:33;;;;;;;4.35;2.10;;;11.70;99.90;;;;;;4990728;28;20397;-74
2022/10/04 03:40:02;;;;;;;8.32;2.72;;;11.70;99.90;;;;;;4991920;28;20109;-76
2022/10/04 03:42:30;;;;;;;9.27;3.08;;;11.70;99.90;;;;;;5008064;28;20025;-74
2022/10/04 03:45:01;;;;;;;8.93;2.22;;;11.70;99.90;;;;;;4990870;28;20037;-74
2022/10/04 03:47:30;;;;;;;9.80;2.90;;;11.70;99.90;;;;;;5005602;28;20053;-77
2022/10/04 03:50:01;;;;;;;6.72;2.53;;;11.70;99.90;;;;;;5002084;28;20022;-76
2022/10/04 03:52:32;;;;;;;7.20;2.60;;;11.70;99.90;;;;;;4992984;28;20120;-78
2022/10/04 03:55:03;;;;;;;12.35;3.25;;;11.70;99.90;;;;;;5006875;28;20401;-74
2022/10/04 03:57:30;;;;;;;8.82;3.30;;;11.70;99.90;;;;;;4990818;28;20036;-73
2022/10/04 03:59:57;;;;;;;7.60;2.67;;;11.70;99.90;;;;;;4990305;28;20030;-75
2022/10/04 04:02:43;;;;;;;8.98;3.00;;;11.70;99.90;;;;;;4986004;28;20092;-77
2022/10/04 04:05:23;;;;;;;8.15;2.90;;;11.70;99.90;;;;;;4979829;28;20038;-73
2022/10/04 04:08:14;;;;;;;12.57;2.92;;;11.70;99.90;;;;;;5007503;28;20030;-74
2022/10/04 04:10:51;;;;;;;7.55;3.22;;;11.70;99.90;;;;;;5007880;28;20114;-75
2022/10/04 04:13:55;;;;;;;7.65;2.83;;;11.70;99.90;;;;;;5005536;28;20034;-74
2022/10/04 04:16:27;;;;;;;6.55;3.05;;;11.70;99.90;;;;;;5009049;28;20457;-73
2022/10/04 04:18:58;;;;;;;7.03;2.58;;;11.70;99.90;;;;;;5005882;28;20097;-75
2022/10/04 04:21:25;;;;;;;5.95;2.40;;;11.80;99.90;;;;;;5007707;28;20030;-73
2022/10/04 04:24:01;;;;;;;9.07;2.42;;;11.70;99.90;;;;;;4989614;28;20034;-75
2022/10/04 04:26:46;;;;;;;9.73;3.20;;;11.80;99.90;;;;;;5003279;28;20083;-77
2022/10/04 04:29:29;;;;;;;8.20;2.65;;;11.80;99.90;;;;;;5004713;28;20114;-76
2022/10/04 04:32:01;;;;;;;7.75;2.72;;;11.80;99.90;;;;;;5003229;28;20041;-76
2022/10/04 04:34:31;;;;;;;7.68;2.70;;;11.80;99.90;;;;;;5003985;28;20022;-77
2022/10/04 04:37:04;;;;;;;9.65;2.63;;;11.80;99.90;;;;;;4990561;28;20026;-74
2022/10/04 04:39:39;;;;;;;7.38;3.28;;;11.80;99.90;;;;;;4982964;28;20029;-75
2022/10/04 04:42:23;;;;;;;10.38;3.60;;;11.80;99.90;;;;;;4987520;28;20026;-73
2022/10/04 04:45:00;;;;;;;14.30;3.28;;;11.80;99.90;;;;;;5005306;28;20053;-73
2022/10/04 04:47:46;;;;;;;12.35;3.55;;;11.80;99.90;;;;;;5008663;28;20033;-73
2022/10/04 04:50:14;;;;;;;7.97;2.97;;;11.80;99.90;;;;;;4997299;28;20073;-74
2022/10/04 04:52:44;;;;;;;9.65;3.65;;;11.80;99.90;;;;;;5006592;28;20030;-75
2022/10/04 04:55:21;;;;;;;12.65;4.00;;;11.80;99.90;;;;;;5007205;28;20038;-79
2022/10/04 04:57:54;;;;;;;10.48;4.07;;;11.80;99.90;;;;;;4983732;28;20044;-76
2022/10/04 05:00:27;;;;;;;10.00;3.75;;;11.80;99.90;;;;;;5008983;28;20030;-73
2022/10/04 05:02:56;;;;;;;8.63;3.63;;;11.80;99.90;;;;;;5002500;28;20030;-80
2022/10/04 05:05:30;;;;;;;7.82;3.95;;;11.80;99.90;;;;;;5008197;28;20065;-77
2022/10/04 05:08:14;;;;;;;6.15;3.55;;;11.80;99.90;;;;;;5007663;28;20583;-74
2022/10/04 05:10:54;;;;;;;11.65;4.38;;;11.80;99.90;;;;;;4999277;28;20049;-75
2022/10/04 05:13:22;;;;;;;12.40;4.40;;;11.80;99.90;;;;;;4973020;28;20042;-74
2022/10/04 05:15:53;;;;;;;7.50;3.90;;;11.80;99.90;;;;;;4973666;28;20023;-74
2022/10/04 05:18:30;;;;;;;9.07;4.10;;;11.80;99.90;;;;;;4995738;28;20032;-76
2022/10/04 05:21:06;;;;;;;7.75;4.45;;;11.80;99.90;;;;;;4990853;28;20026;-77
2022/10/04 05:23:33;;;;;;;13.75;4.40;;;11.70;99.90;;;;;;4972173;28;20096;-75
2022/10/04 05:26:03;;;;;;;12.38;4.20;;;11.70;99.90;;;;;;4987839;28;20029;-75
2022/10/04 05:28:29;;;;;;;9.57;4.47;;;11.80;99.90;;;;;;4976588;28;20034;-78
2022/10/04 05:31:16;;;;;;;9.50;4.38;;;11.70;99.90;;;;;;5003001;28;20034;-74
2022/10/04 05:33:52;;;;;;;10.90;4.22;;;11.70;99.90;;;;;;4994098;28;20085;-74
2022/10/04 05:36:36;;;;;;;10.93;4.75;;;11.70;99.90;;;;;;4987908;28;20069;-75
2022/10/04 05:39:20;;;;;;;12.88;4.70;;;11.70;99.90;;;;;;4998176;28;20829;-75
2022/10/04 05:41:52;;;;;;;11.52;4.63;;;11.80;99.90;;;;;;5005678;28;20025;-75
2022/10/04 05:44:25;;;;;;;17.42;4.75;;;11.80;99.90;;;;;;4992878;28;20473;-75
2022/10/04 05:46:53;;;;;;;8.32;4.25;;;11.70;99.90;;;;;;4996845;28;20116;-75
2022/10/04 05:49:21;;;;;;;13.55;5.63;;;11.80;99.90;;;;;;4993175;28;20026;-75
2022/10/04 05:51:49;;;;;;;9.18;4.97;;;11.80;99.90;;;;;;5006048;28;20109;-75
2022/10/04 05:54:23;;;;;;;10.77;4.47;;;11.70;99.90;;;;;;4995698;28;20030;-76
2022/10/04 05:57:00;;;;;;;9.85;4.78;;;11.80;99.90;;;;;;5003492;28;20018;-76
2022/10/04 05:59:45;;;;;;;10.50;4.72;;;11.80;99.90;;;;;;5019423;28;20033;-76
2022/10/04 06:02:24;;;;;;;10.15;4.50;;;11.80;99.90;;;;;;5005980;28;20445;-76
2022/10/04 06:05:04;;;;;;;10.20;4.53;;;11.80;99.90;;;;;;5007832;28;20836;-76
2022/10/04 06:07:45;;;;;;;11.43;5.00;;;11.80;99.90;;;;;;5001868;28;20033;-76
2022/10/04 06:10:31;;;;;;;11.77;5.53;;;11.80;99.90;;;;;;4978661;28;20029;-76
2022/10/04 06:13:06;;;;;;;12.95;5.07;;;11.80;99.90;;;;;;4989101;28;20121;-76
2022/10/04 06:15:44;;;;;;;11.32;5.43;;;11.80;99.90;;;;;;5005093;28;20036;-75
2022/10/04 06:18:16;;;;;;;8.18;4.38;;;11.80;99.90;;;;;;5020288;28;20694;-76
2022/10/04 06:20:42;;;;;;;12.02;5.22;;;11.80;99.90;;;;;;5018709;28;20022;-75
2022/10/04 06:23:15;;;;;;;10.43;4.53;;;11.70;99.90;;;;;;5000977;28;20109;-76
2022/10/04 06:26:07;;;;;;;8.80;4.65;;;11.70;99.90;;;;;;4988793;28;20117;-76
2022/10/04 06:28:47;;;;;;;12.15;5.65;;;11.70;99.90;;;;;;5003389;28;20112;-76
2022/10/04 06:31:21;;;;;;;12.07;5.28;;;11.70;99.90;;;;;;5005056;28;20076;-76
2022/10/04 06:34:11;;;;;;;11.82;5.20;;;11.70;99.90;;;;;;5003344;28;20042;-76
2022/10/04 06:36:46;;;;;;;11.75;5.03;;;11.60;99.90;;;;;;5003665;28;20037;-75
2022/10/04 06:39:26;;;;;;;15.13;4.95;;;11.60;99.90;;;;;;5007730;28;20367;-76
2022/10/04 06:42:33;;;;;;;12.45;5.70;;;11.60;99.90;;;;;;5000921;28;20562;-75
2022/10/04 06:45:42;;;;;;;11.05;5.90;;;11.70;99.90;;;;;;5003058;28;20030;-76
2022/10/04 06:48:28;;;;;;;13.48;5.88;;;11.70;99.90;;;;;;4998065;28;20084;-76
2022/10/04 06:51:07;;;;;;;10.68;5.13;;;11.70;99.90;;;;;;4991349;28;20136;-76
2022/10/04 06:53:51;;;;;;;10.82;5.50;;;11.80;99.90;;;;;;4997398;28;20022;-76
2022/10/04 06:56:42;;;;;;;12.43;5.65;;;11.80;99.90;;;;;;5007505;28;20509;-77
2022/10/04 06:59:30;;;;;;;12.10;6.25;;;11.80;99.90;;;;;;5005077;28;20021;-76
2022/10/04 07:01:59;;;;;;;13.05;5.57;;;11.90;99.90;;;;;;5007018;28;20109;-76
2022/10/04 07:04:35;;;;;;;10.68;6.47;;;11.90;99.90;;;;;;5007479;28;20461;-76
2022/10/04 07:07:36;;;;;;;10.55;5.60;;;12.00;99.90;;;;;;5007164;28;20030;-76
2022/10/04 07:10:05;;;;;;;;;;;12.00;99.90;;;;;;5003443;28;20024;-76
2022/10/04 07:12:32;;;;;;;9.68;5.13;;;12.00;99.90;;;;;;4999167;28;19921;-76
2022/10/04 07:15:01;;;;;;;11.40;6.05;;;12.10;99.90;;;;;;5004301;28;20034;-76
2022/10/04 07:17:31;;;;;;;16.75;6.55;;;12.10;99.90;;;;;;5004288;28;20145;-75
2022/10/04 07:19:58;;;;;;;11.23;6.10;;;12.10;99.90;;;;;;5002061;28;20140;-76
2022/10/04 07:22:44;;;;;;;10.70;5.70;;;12.20;99.90;;;;;;5001930;28;20080;-76
2022/10/04 07:25:21;;;;;;;12.65;6.32;;;12.30;99.90;;;;;;5026574;28;20215;-76
2022/10/04 07:29:19;;;;;;;11.23;6.30;;;12.30;99.90;;;;;;4996895;28;20026;-75
2022/10/04 07:30:51;;;;;;;;;;;12.40;99.90;;;;;;5009929;28;20044;-76
2022/10/04 07:33:22;;;;;;;13.02;5.68;;;12.40;99.90;;;;;;5022257;28;19914;-76
2022/10/04 07:35:53;;;;;;;15.10;6.30;;;12.40;99.90;;;;;;5007656;28;20022;-77
2022/10/04 07:38:46;;;;;;;10.95;6.47;;;12.40;99.90;;;;;;4992346;28;20049;-76
2022/10/04 07:41:17;;;;;;;9.55;5.03;;;12.50;99.90;;;;;;5010473;28;20037;-76
2022/10/04 07:43:56;;;;;;;11.80;5.45;;;12.50;99.90;;;;;;5016917;28;20440;-75
2022/10/04 07:46:42;;;;;;;10.07;5.10;;;12.50;99.90;;;;;;5032801;28;20048;-76
2022/10/04 07:49:19;;;;;;;16.02;7.18;;;12.50;99.90;;;;;;5031946;28;20053;-75
2022/10/04 07:52:14;;;;;;;8.10;5.88;;;12.60;99.90;;;;;;5019642;28;20080;-75
2022/10/04 07:54:46;;;;;;;12.73;6.10;;;12.60;99.90;;;;;;5007376;28;20568;-75
2022/10/04 07:57:32;;;;;;;12.95;6.03;;;12.70;99.90;;;;;;4997540;28;20034;-75
2022/10/04 08:00:15;;;;;;;19.23;6.38;;;12.70;99.90;;;;;;5006833;28;20032;-76
2022/10/04 08:02:44;;;;;;;10.27;5.47;;;12.80;99.90;;;;;;5008566;28;20383;-76
2022/10/04 08:05:27;;;;;;;7.55;4.97;;;12.80;99.90;;;;;;5004873;28;20037;-77
2022/10/04 08:08:25;;;;;;;12.18;5.65;;;12.90;99.90;;;;;;5009545;28;20497;-76
2022/10/04 08:11:00;;;;;;;14.57;6.00;;;12.90;99.90;;;;;;5008841;28;20049;-75
2022/10/04 08:13:37;;;;;;;16.02;6.47;;;12.90;99.90;;;;;;5007046;28;20030;-76
2022/10/04 08:16:29;;;;;;;13.95;6.55;;;13.00;99.90;;;;;;5009176;28;20445;-76
2022/10/04 08:19:15;;;;;;;12.20;6.15;;;13.10;99.90;;;;;;4992471;28;20033;-75
2022/10/04 08:21:57;;;;;;;14.73;7.45;;;13.10;99.90;;;;;;5020504;28;20196;-76
2022/10/04 08:24:26;;;;;;;11.63;6.57;;;13.10;99.90;;;;;;5006719;28;20030;-75
2022/10/04 08:27:14;;;;;;;15.32;6.63;;;13.10;99.90;;;;;;5008874;28;20053;-76
2022/10/04 08:29:57;;;;;;;13.48;7.50;;;13.20;99.90;;;;;;5005544;28;20053;-76
2022/10/04 08:32:44;;;;;;;12.50;6.45;;;13.30;99.90;;;;;;5019812;28;20342;-76
2022/10/04 08:35:32;;;;;;;13.85;7.20;;;13.30;99.90;;;;;;4992942;28;20021;-76
2022/10/04 08:38:35;;;;;;;12.50;6.30;;;13.40;99.90;;;;;;4986789;28;20410;-77
2022/10/04 08:41:27;;;;;;;12.32;6.78;;;13.50;99.90;;;;;;4996710;28;20038;-75
2022/10/04 08:44:11;;;;;;;17.45;7.20;;;13.60;99.90;;;;;;5000993;28;20521;-75
2022/10/04 08:46:58;;;;;;;19.20;7.53;;;13.70;99.90;;;;;;4989959;28;20246;-75
2022/10/04 08:49:36;;;;;;;11.45;6.25;;;13.70;99.90;;;;;;4989338;28;20072;-77
2022/10/04 08:52:37;;;;;;;15.75;7.18;;;13.70;99.90;;;;;;4988681;28;20105;-76
2022/10/04 08:55:57;;;;;;;11.65;5.85;;;13.80;99.90;;;;;;4994037;28;20532;-76
2022/10/04 08:58:34;;;;;;;16.73;6.45;;;13.80;99.90;;;;;;4933809;28;20050;-76
2022/10/04 09:01:18;;;;;;;13.15;6.10;;;13.80;99.90;;;;;;4927931;29;20200;-77
2022/10/04 09:04:36;;;;;;;14.15;6.72;;;13.90;99.90;;;;;;4923955;29;20500;-76
2022/10/04 09:07:13;;;;;;;13.93;6.63;;;13.90;99.90;;;;;;4942791;28;20027;-77
2022/10/04 09:10:39;;;;;;;9.88;5.85;;;13.90;99.90;;;;;;4925887;29;20035;-76
2022/10/04 09:13:29;;;;;;;10.95;5.75;;;14.00;99.90;;;;;;4902781;28;20050;-75
2022/10/04 09:16:24;;;;;;;15.40;6.20;;;14.00;99.90;;;;;;4931077;29;20519;-76
2022/10/04 09:19:15;;;;;;;14.82;5.38;;;14.10;99.90;;;;;;4930399;28;20049;-75
2022/10/04 09:21:55;;;;;;;20.23;7.10;;;14.20;99.90;;;;;;4945363;28;20043;-75
2022/10/04 09:24:58;;;;;;;10.48;5.35;;;14.20;99.90;;;;;;4946870;28;20062;-75
2022/10/04 09:28:07;;;;;;;9.48;5.15;;;14.30;99.90;;;;;;4946803;29;20046;-77
2022/10/04 09:30:53;;;;;;;14.18;6.85;;;14.40;99.90;;;;;;5003951;28;20486;-76
2022/10/04 09:33:58;;;;;;;15.48;7.35;;;14.50;99.90;;;;;;5005049;28;20038;-75
2022/10/04 09:36:24;;;;;;;14.70;5.68;;;14.50;99.90;;;;;;5009214;28;20524;-75
2022/10/04 09:39:17;;;;;;;13.73;5.65;;;14.50;99.90;;;;;;5007410;28;20110;-77
2022/10/04 09:41:49;;;;;;;13.93;5.72;;;14.60;99.90;;;;;;4996401;28;20030;-77
2022/10/04 09:44:50;;;;;;;21.27;6.57;;;14.60;99.90;;;;;;5005156;28;20034;-76
2022/10/04 09:47:36;;;;;;;;;;;14.70;99.90;;;;;;5006296;28;20112;-76
2022/10/04 09:50:28;;;;;;;15.05;5.68;;;14.70;99.90;;;;;;5005918;28;19960;-76
2022/10/04 09:53:22;;;;;;;12.27;4.60;;;14.70;99.90;;;;;;5006057;28;20036;-77
2022/10/04 09:56:25;;;;;;;16.73;6.07;;;14.70;99.90;;;;;;5004432;28;20083;-76
2022/10/04 09:59:21;;;;;;;10.15;5.50;;;14.70;99.90;;;;;;5006259;28;20488;-77
2022/10/04 10:01:59;;;;;;;17.25;5.55;;;14.80;99.90;;;;;;5007733;28;20041;-76
2022/10/04 10:04:43;;;;;;;14.50;5.40;;;14.80;99.90;;;;;;5004023;28;20109;-77
2022/10/04 10:07:17;;;;;;;13.43;4.53;;;14.80;99.90;;;;;;4990373;28;20049;-76
2022/10/04 10:16:03;;;;;;;11.30;4.75;;;15.00;99.90;;;;;;4999416;28;20038;-76
2022/10/04 10:18:47;;;;;;;13.23;4.70;;;15.00;99.90;;;;;;5005407;28;20061;-76
2022/10/04 10:21:26;;;;;;;13.05;4.90;;;15.10;99.90;;;;;;5007777;28;20434;-77
2022/10/04 10:24:10;;;;;;;14.70;5.57;;;15.20;99.90;;;;;;5003098;28;20034;-77
2022/10/04 10:26:56;;;;;;;9.98;4.90;;;15.20;99.90;;;;;;4985342;28;20018;-76
2022/10/04 10:29:34;;;;;;;11.50;5.35;;;15.10;99.90;;;;;;5008689;28;20088;-76
2022/10/04 10:32:19;;;;;;;13.45;4.97;;;15.20;99.90;;;;;;5010249;28;20080;-76
2022/10/04 10:34:51;;;;;;;13.05;4.53;;;15.30;99.90;;;;;;5012952;28;20026;-77
2022/10/04 10:37:37;;;;;;;12.00;6.00;;;15.30;99.90;;;;;;5004820;28;20045;-77
2022/10/04 10:40:35;;;;;;;13.48;6.55;;;15.30;99.90;;;;;;5006314;28;20021;-77
2022/10/04 10:43:19;;;;;;;16.75;6.55;;;15.50;99.90;;;;;;5016558;28;20032;-77
2022/10/04 10:46:23;;;;;;;8.80;5.00;;;15.50;99.90;;;;;;5009014;28;20389;-76
2022/10/04 10:49:06;;;;;;;15.27;6.55;;;16.00;99.90;;;;;;5010808;28;20030;-76
2022/10/04 10:52:05;;;;;;;13.85;5.03;;;17.00;99.90;;;;;;5011790;28;20053;-76
2022/10/04 10:54:30;;;;;;;14.05;5.90;;;17.20;99.90;;;;;;5008240;28;20044;-77
2022/10/04 10:57:06;;;;;;;15.60;5.40;;;17.10;99.90;;;;;;5008935;28;20029;-77
2022/10/04 11:00:00;;;;;;;11.43;4.82;;;17.20;99.90;;;;;;5012158;28;20026;-77
2022/10/04 11:02:28;;;;;;;12.32;4.75;;;18.00;99.90;;;;;;5010190;28;20045;-77
2022/10/04 11:05:16;;;;;;;9.77;4.95;;;18.60;99.90;;;;;;5015069;28;20033;-77
2022/10/04 11:07:50;;;;;;;11.80;4.78;;;18.70;99.90;;;;;;5029014;28;20139;-77
2022/10/04 11:10:58;;;;;;;11.10;4.97;;;18.70;99.90;;;;;;5013655;28;20030;-77
2022/10/04 11:13:33;;;;;;;11.68;5.13;;;18.60;99.90;;;;;;5010319;28;20026;-73
2022/10/04 11:16:40;;;;;;;10.40;4.20;;;18.20;99.90;;;;;;5006381;28;20033;-74
2022/10/04 11:19:45;;;;;;;10.90;4.40;;;18.00;99.90;;;;;;5005533;28;20118;-73
2022/10/04 11:22:43;;;;;;;13.45;4.85;;;18.10;99.90;;;;;;5005096;28;20061;-74
2022/10/04 11:25:24;;;;;;;13.60;4.45;;;17.90;99.90;;;;;;5012281;28;20038;-73
2022/10/04 11:28:23;;;;;;;15.80;4.80;;;17.40;99.90;;;;;;5006073;28;20034;-73
2022/10/04 11:31:11;;;;;;;12.20;4.85;;;17.10;99.90;;;;;;5002231;28;20486;-73
2022/10/04 11:34:11;;;;;;;10.38;4.10;;;17.00;99.90;;;;;;5008417;28;20058;-75
2022/10/04 11:36:49;;;;;;;13.65;5.22;;;16.70;99.90;;;;;;5010755;28;20125;-76
2022/10/04 11:39:44;;;;;;;14.88;4.60;;;16.60;99.90;;;;;;5004043;28;20045;-76
2022/10/04 11:42:28;;;;;;;9.25;3.40;;;16.60;99.90;;;;;;5009509;28;20026;-74
2022/10/04 11:45:32;;;;;;;8.38;3.28;;;16.80;99.90;;;;;;5002800;28;20037;-76
2022/10/04 11:48:10;;;;;;;12.43;4.25;;;17.00;99.90;;;;;;4998686;28;20026;-75
2022/10/04 11:50:54;;;;;;;13.10;4.07;;;17.00;99.90;;;;;;5009518;28;20026;-76
2022/10/04 11:53:51;;;;;;;13.00;4.00;;;16.90;99.90;;;;;;5013388;28;20072;-76
2022/10/04 11:56:28;;;;;;;9.15;3.30;;;16.70;99.90;;;;;;5022214;28;20572;-75
2022/10/04 11:59:09;;;;;;;9.05;3.20;;;16.60;99.90;;;;;;5020699;28;20339;-76
2022/10/04 12:02:17;;;;;;;284.88;122.00;;;16.70;99.90;;;;;;5005046;28;20486;-76
2022/10/04 12:05:17;;;;;;;19.00;7.72;;;17.10;99.90;;;;;;5006479;28;20517;-74
2022/10/04 12:07:56;;;;;;;23.65;10.23;;;17.20;99.90;;;;;;5004393;28;20124;-74
2022/10/04 12:10:35;;;;;;;13.38;3.55;;;17.10;99.90;;;;;;5000886;28;20045;-74
2022/10/04 12:13:53;;;;;;;10.75;3.03;;;16.80;99.90;;;;;;5006536;28;20119;-74
2022/10/04 12:16:41;;;;;;;9.85;2.97;;;16.80;99.90;;;;;;4984305;28;20445;-75
2022/10/04 12:19:14;;;;;;;9.40;2.92;;;16.90;99.90;;;;;;5008318;28;20057;-75
2022/10/04 12:21:51;;;;;;;8.20;2.30;;;17.00;99.90;;;;;;5007834;28;20599;-75
2022/10/04 12:24:51;;;;;;;11.10;2.60;;;17.00;99.90;;;;;;5007254;28;20056;-75
2022/10/04 12:27:52;;;;;;;7.70;2.75;;;16.80;99.90;;;;;;5008913;28;20092;-75
2022/10/04 12:30:32;;;;;;;7.10;2.70;;;17.00;99.90;;;;;;5002760;28;20061;-75
2022/10/04 12:33:13;;;;;;;11.70;2.92;;;16.90;99.90;;;;;;4986111;28;20113;-75
2022/10/04 12:35:56;;;;;;;;;;;17.00;99.90;;;;;;5006049;28;20604;-75
2022/10/04 12:39:00;;;;;;;10.38;3.50;;;17.00;99.90;;;;;;4984813;28;19922;-75
2022/10/04 12:41:48;;;;;;;10.65;3.50;;;16.90;99.90;;;;;;5000606;28;20515;-75
2022/10/04 12:44:39;;;;;;;1273.38;772.75;;;16.80;99.90;;;;;;5019495;28;20026;-74
2022/10/04 12:47:30;;;;;;;381.20;259.27;;;16.70;99.90;;;;;;5007163;28;20025;-74
2022/10/04 12:50:27;;;;;;;330.92;267.63;;;16.70;99.90;;;;;;5004368;28;20510;-74
2022/10/04 12:53:05;;;;;;;14.27;8.77;;;16.70;99.90;;;;;;5009848;28;20048;-75
2022/10/04 12:55:53;;;;;;;11.52;3.90;;;16.70;99.90;;;;;;5004758;28;20033;-75
2022/10/04 12:58:38;;;;;;;10.27;3.60;;;16.60;99.90;;;;;;5007114;28;20057;-75
2022/10/04 13:01:23;;;;;;;8.63;3.22;;;16.50;99.90;;;;;;5024082;28;20029;-74
2022/10/04 13:04:10;;;;;;;10.20;2.70;;;16.60;99.90;;;;;;5007390;28;20497;-75
2022/10/04 13:07:20;;;;;;;5.60;2.80;;;16.60;99.90;;;;;;5008466;28;20033;-74
2022/10/04 13:09:57;;;;;;;8.95;3.10;;;16.60;99.90;;;;;;4999331;28;20040;-75
2022/10/04 13:12:30;;;;;;;7.38;2.40;;;16.50;99.90;;;;;;4989361;28;20486;-75
2022/10/04 13:15:23;;;;;;;13.00;3.55;;;16.50;99.90;;;;;;5009330;28;20041;-75
2022/10/04 13:18:22;;;;;;;9.30;2.90;;;16.40;99.90;;;;;;5004890;28;20028;-76
2022/10/04 13:21:04;;;;;;;10.55;2.80;;;16.40;99.90;;;;;;5005545;28;20026;-75
2022/10/04 13:23:45;;;;;;;8.85;3.30;;;16.50;99.90;;;;;;5005085;28;20048;-75
2022/10/04 13:26:14;;;;;;;8.77;2.95;;;16.50;99.90;;;;;;5002882;28;20080;-75
2022/10/04 13:29:01;;;;;;;4.30;2.80;;;16.40;99.90;;;;;;5009514;28;20306;-75
2022/10/04 13:31:47;;;;;;;5.68;2.90;;;16.30;99.90;;;;;;5004896;28;20034;-74
2022/10/04 13:34:47;;;;;;;12.05;3.25;;;16.30;99.90;;;;;;5008355;28;20567;-74
2022/10/04 13:37:41;;;;;;;8.13;3.30;;;16.20;99.90;;;;;;5004979;28;20022;-74
2022/10/04 13:40:24;;;;;;;5.28;3.00;;;16.20;99.90;;;;;;5005564;28;20033;-74
2022/10/04 13:43:19;;;;;;;13.27;4.07;;;16.20;99.90;;;;;;5014231;28;20026;-74
2022/10/04 13:45:55;;;;;;;10.10;3.97;;;16.10;99.90;;;;;;5006079;28;20481;-74
2022/10/04 13:48:40;;;;;;;9.43;3.33;;;16.10;99.90;;;;;;5008758;28;20089;-74
2022/10/04 13:51:37;;;;;;;14.93;4.10;;;16.20;99.90;;;;;;5007126;28;20490;-74
2022/10/04 13:57:36;;;;;;;8.40;2.92;;;16.30;99.90;;;;;;5005496;28;20393;-75
2022/10/04 14:00:13;;;;;;;8.95;3.17;;;16.30;99.90;;;;;;5006054;28;20034;-75
2022/10/04 14:02:50;;;;;;;8.40;2.58;;;16.30;99.90;;;;;;5016589;28;20035;-75